This is the latest recevied weather packets stored in our database for station/object DM3DP. If no packets are shown the sender has not sent any weather packets the latest 10 day(s).
| Time | Temp. | Humidity | Pressure | Rain* | Wind** | Luminosity | Snow |
|---|---|---|---|---|---|---|---|
| 1777813557 | 20.56° C | 58% | 1010.4 hPa | 0 mm | - | 91 W/m² | - |
| 1777813226 | 21.67° C | 53% | 1010.2 hPa | 0 mm | - | 102 W/m² | - |
| 1777812896 | 21.67° C | 53% | 1010.2 hPa | 0 mm | - | 122 W/m² | - |
| 1777812567 | 21.67° C | 51% | 1010.2 hPa | 0 mm | - | 118 W/m² | - |
| 1777812237 | 21.67° C | 51% | 1010.1 hPa | 0 mm | - | 135 W/m² | - |
| 1777811907 | 21.67° C | 51% | 1010.1 hPa | 0 mm | - | 144 W/m² | - |
| 1777811577 | 21.67° C | 50% | 1010.1 hPa | 0 mm | - | 160 W/m² | - |
| 1777811247 | 22.22° C | 49% | 1010.1 hPa | 0 mm | - | 133 W/m² | - |
| 1777810916 | 22.78° C | 49% | 1010.1 hPa | 0 mm | - | 105 W/m² | - |
| 1777810587 | 22.78° C | 49% | 1010.1 hPa | 0 mm | - | 96 W/m² | - |
| 1777810256 | 22.78° C | 49% | 1010.1 hPa | 0 mm | - | 128 W/m² | - |
| 1777809926 | 22.78° C | 48% | 1010.1 hPa | 0 mm | - | 191 W/m² | - |
| 1777809597 | 22.78° C | 48% | 1010.1 hPa | 0 mm | - | 238 W/m² | - |
| 1777809267 | 22.22° C | 49% | 1010.1 hPa | 0 mm | - | 305 W/m² | - |
| 1777808937 | 22.22° C | 48% | 1010.1 hPa | 0 mm | - | 226 W/m² | - |
| 1777808606 | 22.22° C | 48% | 1010.1 hPa | 0 mm | - | 169 W/m² | - |
| 1777808276 | 21.67° C | 50% | 1010.1 hPa | 0 mm | - | 124 W/m² | - |
| 1777807946 | 22.22° C | 47% | 1010.1 hPa | 0 mm | - | 122 W/m² | - |
| 1777807616 | 22.22° C | 47% | 1010.2 hPa | 0 mm | - | 153 W/m² | - |
| 1777807286 | 22.22° C | 48% | 1010.2 hPa | 0 mm | - | 175 W/m² | - |
| 1777806956 | 22.22° C | 47% | 1010.2 hPa | 0 mm | - | 161 W/m² | - |
| 1777806626 | 22.22° C | 49% | 1010.3 hPa | 0 mm | - | 201 W/m² | - |
| 1777806297 | 22.22° C | 51% | 1010.3 hPa | 0 mm | - | 214 W/m² | - |
| 1777805966 | 21.67° C | 50% | 1010.3 hPa | 0 mm | - | 284 W/m² | - |
| 1777805636 | 21.67° C | 50% | 1010.3 hPa | 0 mm | - | 225 W/m² | - |
* Rain latest hour (hover to see other rain measurements)
** Current wind speed in m/s (hover to see current wind gust speed)